sensor_id;sensor_type;location;lat;lon;timestamp;P1;durP1;ratioP1;P2;durP2;ratioP2
78781;SDS011;68126;55.748;48.742;2023-12-28T00:02:26;8.13;;;3.77;;
78781;SDS011;68126;55.748;48.742;2023-12-28T00:07:19;10.88;;;6.25;;
78781;SDS011;68126;55.748;48.742;2023-12-28T00:12:43;9.88;;;4.70;;
78781;SDS011;68126;55.748;48.742;2023-12-28T00:18:08;8.88;;;5.30;;
78781;SDS011;68126;55.748;48.742;2023-12-28T00:23:33;8.75;;;3.90;;
78781;SDS011;68126;55.748;48.742;2023-12-28T00:28:57;7.33;;;3.15;;
78781;SDS011;68126;55.748;48.742;2023-12-28T00:34:22;9.43;;;6.65;;
78781;SDS011;68126;55.748;48.742;2023-12-28T00:39:47;11.57;;;6.12;;
78781;SDS011;68126;55.748;48.742;2023-12-28T00:45:12;8.23;;;4.78;;
78781;SDS011;68126;55.748;48.742;2023-12-28T00:50:37;12.07;;;4.50;;
78781;SDS011;68126;55.748;48.742;2023-12-28T00:56:02;8.10;;;4.75;;
78781;SDS011;68126;55.748;48.742;2023-12-28T01:01:26;8.18;;;4.15;;
78781;SDS011;68126;55.748;48.742;2023-12-28T01:06:52;10.40;;;4.70;;
78781;SDS011;68126;55.748;48.742;2023-12-28T01:12:17;8.58;;;3.65;;
78781;SDS011;68126;55.748;48.742;2023-12-28T01:17:42;9.65;;;5.45;;
78781;SDS011;68126;55.748;48.742;2023-12-28T01:23:07;9.38;;;4.53;;
78781;SDS011;68126;55.748;48.742;2023-12-28T01:28:31;9.08;;;4.67;;
78781;SDS011;68126;55.748;48.742;2023-12-28T01:33:56;12.07;;;5.97;;
78781;SDS011;68126;55.748;48.742;2023-12-28T01:39:21;7.80;;;3.92;;
78781;SDS011;68126;55.748;48.742;2023-12-28T01:44:46;10.15;;;4.83;;
78781;SDS011;68126;55.748;48.742;2023-12-28T01:50:11;9.50;;;4.40;;
78781;SDS011;68126;55.748;48.742;2023-12-28T01:55:36;8.80;;;4.20;;
78781;SDS011;68126;55.748;48.742;2023-12-28T02:01:00;9.33;;;5.08;;
78781;SDS011;68126;55.748;48.742;2023-12-28T02:06:25;12.43;;;5.45;;
78781;SDS011;68126;55.748;48.742;2023-12-28T02:11:50;12.00;;;6.90;;
78781;SDS011;68126;55.748;48.742;2023-12-28T02:23:02;13.20;;;5.03;;
78781;SDS011;68126;55.748;48.742;2023-12-28T02:28:28;9.63;;;5.15;;
78781;SDS011;68126;55.748;48.742;2023-12-28T02:33:54;9.20;;;4.58;;
78781;SDS011;68126;55.748;48.742;2023-12-28T02:39:19;9.40;;;5.17;;
78781;SDS011;68126;55.748;48.742;2023-12-28T02:44:44;12.53;;;6.58;;
78781;SDS011;68126;55.748;48.742;2023-12-28T02:50:09;12.15;;;6.12;;
78781;SDS011;68126;55.748;48.742;2023-12-28T02:55:34;12.05;;;6.22;;
78781;SDS011;68126;55.748;48.742;2023-12-28T03:00:59;10.85;;;6.47;;
78781;SDS011;68126;55.748;48.742;2023-12-28T03:06:24;13.93;;;6.70;;
78781;SDS011;68126;55.748;48.742;2023-12-28T03:11:48;10.43;;;4.53;;
78781;SDS011;68126;55.748;48.742;2023-12-28T03:17:13;9.03;;;4.97;;
78781;SDS011;68126;55.748;48.742;2023-12-28T03:22:38;13.32;;;5.05;;
78781;SDS011;68126;55.748;48.742;2023-12-28T03:28:03;10.20;;;5.50;;
78781;SDS011;68126;55.748;48.742;2023-12-28T03:33:27;12.25;;;5.40;;
78781;SDS011;68126;55.748;48.742;2023-12-28T03:38:52;8.30;;;3.90;;
78781;SDS011;68126;55.748;48.742;2023-12-28T03:44:17;9.20;;;5.15;;
78781;SDS011;68126;55.748;48.742;2023-12-28T03:49:42;8.73;;;4.28;;
78781;SDS011;68126;55.748;48.742;2023-12-28T03:55:07;6.25;;;2.90;;
78781;SDS011;68126;55.748;48.742;2023-12-28T04:00:32;8.53;;;3.58;;
78781;SDS011;68126;55.748;48.742;2023-12-28T04:05:56;13.40;;;4.03;;
78781;SDS011;68126;55.748;48.742;2023-12-28T04:11:21;6.95;;;3.67;;
78781;SDS011;68126;55.748;48.742;2023-12-28T04:16:46;7.50;;;4.20;;
78781;SDS011;68126;55.748;48.742;2023-12-28T04:22:11;6.78;;;3.87;;
78781;SDS011;68126;55.748;48.742;2023-12-28T04:27:36;8.10;;;3.65;;
78781;SDS011;68126;55.748;48.742;2023-12-28T04:33:01;6.03;;;3.85;;
78781;SDS011;68126;55.748;48.742;2023-12-28T04:38:26;4.03;;;2.10;;
78781;SDS011;68126;55.748;48.742;2023-12-28T04:43:50;5.33;;;3.40;;
78781;SDS011;68126;55.748;48.742;2023-12-28T04:49:15;4.85;;;3.05;;
78781;SDS011;68126;55.748;48.742;2023-12-28T04:54:40;5.12;;;3.10;;
78781;SDS011;68126;55.748;48.742;2023-12-28T05:00:05;4.22;;;2.55;;
78781;SDS011;68126;55.748;48.742;2023-12-28T05:05:30;4.28;;;2.77;;
78781;SDS011;68126;55.748;48.742;2023-12-28T05:10:55;7.00;;;3.47;;
78781;SDS011;68126;55.748;48.742;2023-12-28T05:16:20;4.40;;;3.00;;
78781;SDS011;68126;55.748;48.742;2023-12-28T05:21:45;6.58;;;3.22;;
78781;SDS011;68126;55.748;48.742;2023-12-28T05:27:10;5.80;;;2.90;;
78781;SDS011;68126;55.748;48.742;2023-12-28T05:32:34;3.75;;;2.40;;
78781;SDS011;68126;55.748;48.742;2023-12-28T05:37:59;2.98;;;1.37;;
78781;SDS011;68126;55.748;48.742;2023-12-28T05:43:24;3.95;;;2.98;;
78781;SDS011;68126;55.748;48.742;2023-12-28T05:48:49;4.47;;;2.05;;
78781;SDS011;68126;55.748;48.742;2023-12-28T05:54:13;3.85;;;2.60;;
78781;SDS011;68126;55.748;48.742;2023-12-28T05:59:38;5.05;;;3.47;;
78781;SDS011;68126;55.748;48.742;2023-12-28T06:05:03;4.28;;;2.33;;
78781;SDS011;68126;55.748;48.742;2023-12-28T06:10:28;3.58;;;2.45;;
78781;SDS011;68126;55.748;48.742;2023-12-28T06:15:53;2.75;;;2.08;;
78781;SDS011;68126;55.748;48.742;2023-12-28T06:21:17;2.85;;;2.02;;
78781;SDS011;68126;55.748;48.742;2023-12-28T06:26:43;3.12;;;2.25;;
78781;SDS011;68126;55.748;48.742;2023-12-28T06:32:08;5.15;;;3.80;;
78781;SDS011;68126;55.748;48.742;2023-12-28T06:37:32;2.85;;;1.62;;
78781;SDS011;68126;55.748;48.742;2023-12-28T06:42:57;4.62;;;2.77;;
78781;SDS011;68126;55.748;48.742;2023-12-28T06:48:22;4.15;;;2.42;;
78781;SDS011;68126;55.748;48.742;2023-12-28T06:53:48;4.83;;;2.70;;
78781;SDS011;68126;55.748;48.742;2023-12-28T06:59:13;4.15;;;2.58;;
78781;SDS011;68126;55.748;48.742;2023-12-28T07:04:38;4.37;;;2.62;;
78781;SDS011;68126;55.748;48.742;2023-12-28T07:10:03;5.08;;;3.30;;
78781;SDS011;68126;55.748;48.742;2023-12-28T07:15:28;4.37;;;2.87;;
78781;SDS011;68126;55.748;48.742;2023-12-28T07:20:53;4.35;;;2.47;;
78781;SDS011;68126;55.748;48.742;2023-12-28T07:26:17;3.75;;;2.37;;
78781;SDS011;68126;55.748;48.742;2023-12-28T07:31:42;2.45;;;2.12;;
78781;SDS011;68126;55.748;48.742;2023-12-28T07:37:07;1.27;;;1.15;;
78781;SDS011;68126;55.748;48.742;2023-12-28T07:42:32;4.40;;;2.12;;
78781;SDS011;68126;55.748;48.742;2023-12-28T07:47:56;1.98;;;1.72;;
78781;SDS011;68126;55.748;48.742;2023-12-28T07:53:21;3.85;;;2.75;;
78781;SDS011;68126;55.748;48.742;2023-12-28T07:58:46;3.62;;;2.50;;
78781;SDS011;68126;55.748;48.742;2023-12-28T08:04:11;4.42;;;2.75;;
78781;SDS011;68126;55.748;48.742;2023-12-28T08:09:35;5.10;;;3.58;;
78781;SDS011;68126;55.748;48.742;2023-12-28T08:15:00;4.80;;;2.62;;
78781;SDS011;68126;55.748;48.742;2023-12-28T08:20:27;6.08;;;2.58;;
78781;SDS011;68126;55.748;48.742;2023-12-28T08:25:52;2.60;;;1.60;;
78781;SDS011;68126;55.748;48.742;2023-12-28T08:31:17;2.67;;;2.30;;
78781;SDS011;68126;55.748;48.742;2023-12-28T08:36:42;3.15;;;2.27;;
78781;SDS011;68126;55.748;48.742;2023-12-28T08:42:07;4.22;;;2.70;;
78781;SDS011;68126;55.748;48.742;2023-12-28T08:47:32;5.25;;;2.25;;
78781;SDS011;68126;55.748;48.742;2023-12-28T08:52:56;6.55;;;2.47;;
78781;SDS011;68126;55.748;48.742;2023-12-28T08:58:21;5.12;;;2.95;;
78781;SDS011;68126;55.748;48.742;2023-12-28T09:03:46;2.95;;;2.20;;
78781;SDS011;68126;55.748;48.742;2023-12-28T09:09:11;3.33;;;2.75;;
78781;SDS011;68126;55.748;48.742;2023-12-28T09:14:36;2.55;;;1.70;;
78781;SDS011;68126;55.748;48.742;2023-12-28T09:20:01;5.47;;;2.12;;
78781;SDS011;68126;55.748;48.742;2023-12-28T09:25:28;3.70;;;2.90;;
78781;SDS011;68126;55.748;48.742;2023-12-28T09:30:53;3.40;;;2.22;;
78781;SDS011;68126;55.748;48.742;2023-12-28T09:36:18;2.55;;;1.98;;
78781;SDS011;68126;55.748;48.742;2023-12-28T09:41:43;3.05;;;2.00;;
78781;SDS011;68126;55.748;48.742;2023-12-28T09:47:09;6.50;;;2.37;;
78781;SDS011;68126;55.748;48.742;2023-12-28T09:52:35;4.22;;;2.62;;
78781;SDS011;68126;55.748;48.742;2023-12-28T09:58:00;3.27;;;2.10;;
78781;SDS011;68126;55.748;48.742;2023-12-28T10:03:24;2.47;;;1.67;;
78781;SDS011;68126;55.748;48.742;2023-12-28T10:08:49;3.85;;;2.35;;
78781;SDS011;68126;55.748;48.742;2023-12-28T10:14:14;4.62;;;2.85;;
78781;SDS011;68126;55.748;48.742;2023-12-28T10:19:39;3.02;;;2.52;;
78781;SDS011;68126;55.748;48.742;2023-12-28T10:25:06;4.33;;;3.00;;
78781;SDS011;68126;55.748;48.742;2023-12-28T10:30:30;4.17;;;3.72;;
78781;SDS011;68126;55.748;48.742;2023-12-28T10:35:55;3.83;;;2.30;;
78781;SDS011;68126;55.748;48.742;2023-12-28T10:41:21;3.17;;;2.22;;
78781;SDS011;68126;55.748;48.742;2023-12-28T10:46:46;1.98;;;1.32;;
78781;SDS011;68126;55.748;48.742;2023-12-28T10:52:13;2.22;;;2.02;;
78781;SDS011;68126;55.748;48.742;2023-12-28T10:57:40;3.72;;;2.12;;
78781;SDS011;68126;55.748;48.742;2023-12-28T11:03:06;4.95;;;3.10;;
78781;SDS011;68126;55.748;48.742;2023-12-28T11:08:32;3.10;;;1.80;;
78781;SDS011;68126;55.748;48.742;2023-12-28T11:14:00;4.10;;;2.10;;
78781;SDS011;68126;55.748;48.742;2023-12-28T11:19:24;2.90;;;1.90;;
78781;SDS011;68126;55.748;48.742;2023-12-28T11:24:51;7.15;;;2.40;;
78781;SDS011;68126;55.748;48.742;2023-12-28T11:30:16;1.92;;;1.37;;
78781;SDS011;68126;55.748;48.742;2023-12-28T11:35:41;4.85;;;2.12;;
78781;SDS011;68126;55.748;48.742;2023-12-28T11:41:05;2.67;;;2.08;;
78781;SDS011;68126;55.748;48.742;2023-12-28T11:46:30;3.22;;;1.92;;
78781;SDS011;68126;55.748;48.742;2023-12-28T11:57:40;2.77;;;2.42;;
78781;SDS011;68126;55.748;48.742;2023-12-28T12:03:05;3.47;;;1.60;;
78781;SDS011;68126;55.748;48.742;2023-12-28T12:08:29;2.47;;;1.62;;
78781;SDS011;68126;55.748;48.742;2023-12-28T12:13:54;2.45;;;1.95;;
78781;SDS011;68126;55.748;48.742;2023-12-28T12:19:19;3.95;;;2.17;;
78781;SDS011;68126;55.748;48.742;2023-12-28T12:24:44;3.92;;;1.98;;
78781;SDS011;68126;55.748;48.742;2023-12-28T12:30:10;4.83;;;3.47;;
78781;SDS011;68126;55.748;48.742;2023-12-28T12:35:35;2.95;;;1.87;;
78781;SDS011;68126;55.748;48.742;2023-12-28T12:41:01;2.92;;;1.57;;
78781;SDS011;68126;55.748;48.742;2023-12-28T12:46:26;2.50;;;2.30;;
78781;SDS011;68126;55.748;48.742;2023-12-28T12:51:51;2.72;;;2.33;;
78781;SDS011;68126;55.748;48.742;2023-12-28T12:57:15;2.10;;;1.90;;
78781;SDS011;68126;55.748;48.742;2023-12-28T13:02:40;3.50;;;3.17;;
78781;SDS011;68126;55.748;48.742;2023-12-28T13:08:05;3.12;;;2.10;;
78781;SDS011;68126;55.748;48.742;2023-12-28T13:13:30;2.92;;;2.15;;
78781;SDS011;68126;55.748;48.742;2023-12-28T13:18:55;2.27;;;1.80;;
78781;SDS011;68126;55.748;48.742;2023-12-28T13:24:20;2.40;;;2.20;;
78781;SDS011;68126;55.748;48.742;2023-12-28T13:29:44;2.60;;;2.40;;
78781;SDS011;68126;55.748;48.742;2023-12-28T13:35:09;3.80;;;2.25;;
78781;SDS011;68126;55.748;48.742;2023-12-28T13:40:34;2.05;;;1.25;;
78781;SDS011;68126;55.748;48.742;2023-12-28T13:45:59;2.95;;;2.72;;
78781;SDS011;68126;55.748;48.742;2023-12-28T13:51:25;3.02;;;2.08;;
78781;SDS011;68126;55.748;48.742;2023-12-28T13:56:49;1.92;;;1.52;;
78781;SDS011;68126;55.748;48.742;2023-12-28T14:02:34;1.47;;;1.37;;
78781;SDS011;68126;55.748;48.742;2023-12-28T14:07:59;1.87;;;1.42;;
78781;SDS011;68126;55.748;48.742;2023-12-28T14:13:24;1.62;;;1.32;;
78781;SDS011;68126;55.748;48.742;2023-12-28T14:18:49;2.00;;;1.90;;
78781;SDS011;68126;55.748;48.742;2023-12-28T14:24:14;2.62;;;2.10;;
78781;SDS011;68126;55.748;48.742;2023-12-28T14:29:39;1.92;;;1.55;;
78781;SDS011;68126;55.748;48.742;2023-12-28T14:35:04;1.90;;;1.80;;
78781;SDS011;68126;55.748;48.742;2023-12-28T14:40:29;2.90;;;2.10;;
78781;SDS011;68126;55.748;48.742;2023-12-28T14:45:54;2.10;;;1.15;;
78781;SDS011;68126;55.748;48.742;2023-12-28T14:51:19;2.67;;;1.67;;
78781;SDS011;68126;55.748;48.742;2023-12-28T14:56:44;4.17;;;2.10;;
78781;SDS011;68126;55.748;48.742;2023-12-28T15:02:08;2.33;;;1.62;;
78781;SDS011;68126;55.748;48.742;2023-12-28T15:07:33;2.22;;;2.02;;
78781;SDS011;68126;55.748;48.742;2023-12-28T15:12:58;3.30;;;2.22;;
78781;SDS011;68126;55.748;48.742;2023-12-28T15:18:24;1.50;;;1.12;;
78781;SDS011;68126;55.748;48.742;2023-12-28T15:23:49;2.35;;;1.82;;
78781;SDS011;68126;55.748;48.742;2023-12-28T15:29:14;1.82;;;1.70;;
78781;SDS011;68126;55.748;48.742;2023-12-28T15:34:39;2.40;;;2.20;;
78781;SDS011;68126;55.748;48.742;2023-12-28T15:40:04;1.98;;;1.77;;
78781;SDS011;68126;55.748;48.742;2023-12-28T15:45:29;3.00;;;2.30;;
78781;SDS011;68126;55.748;48.742;2023-12-28T15:50:54;1.62;;;1.25;;
78781;SDS011;68126;55.748;48.742;2023-12-28T15:56:18;2.17;;;1.62;;
78781;SDS011;68126;55.748;48.742;2023-12-28T16:01:43;1.17;;;0.85;;
78781;SDS011;68126;55.748;48.742;2023-12-28T16:07:08;1.77;;;1.65;;
78781;SDS011;68126;55.748;48.742;2023-12-28T16:12:33;1.65;;;1.55;;
78781;SDS011;68126;55.748;48.742;2023-12-28T16:17:57;3.00;;;2.70;;
78781;SDS011;68126;55.748;48.742;2023-12-28T16:23:23;2.20;;;1.70;;
78781;SDS011;68126;55.748;48.742;2023-12-28T16:28:47;1.27;;;0.78;;
78781;SDS011;68126;55.748;48.742;2023-12-28T16:34:14;2.62;;;2.33;;
78781;SDS011;68126;55.748;48.742;2023-12-28T16:39:39;1.47;;;1.02;;
78781;SDS011;68126;55.748;48.742;2023-12-28T16:45:04;2.52;;;1.72;;
78781;SDS011;68126;55.748;48.742;2023-12-28T16:50:29;2.15;;;1.90;;
78781;SDS011;68126;55.748;48.742;2023-12-28T16:55:54;2.25;;;1.85;;
78781;SDS011;68126;55.748;48.742;2023-12-28T17:01:19;3.30;;;2.67;;
78781;SDS011;68126;55.748;48.742;2023-12-28T17:06:44;9.65;;;2.02;;
78781;SDS011;68126;55.748;48.742;2023-12-28T17:17:53;3.05;;;2.15;;
78781;SDS011;68126;55.748;48.742;2023-12-28T17:29:05;3.75;;;1.77;;
78781;SDS011;68126;55.748;48.742;2023-12-28T17:34:32;4.70;;;2.75;;
78781;SDS011;68126;55.748;48.742;2023-12-28T17:39:57;2.00;;;1.55;;
78781;SDS011;68126;55.748;48.742;2023-12-28T17:45:25;3.08;;;1.67;;
78781;SDS011;68126;55.748;48.742;2023-12-28T17:50:50;7.28;;;3.00;;
78781;SDS011;68126;55.748;48.742;2023-12-28T17:56:16;2.87;;;2.45;;
78781;SDS011;68126;55.748;48.742;2023-12-28T18:01:41;5.50;;;3.35;;
78781;SDS011;68126;55.748;48.742;2023-12-28T18:07:06;3.65;;;2.80;;
78781;SDS011;68126;55.748;48.742;2023-12-28T18:12:30;5.47;;;3.25;;
78781;SDS011;68126;55.748;48.742;2023-12-28T18:17:55;2.40;;;1.40;;
78781;SDS011;68126;55.748;48.742;2023-12-28T18:23:21;4.30;;;2.45;;
78781;SDS011;68126;55.748;48.742;2023-12-28T18:28:48;2.87;;;1.90;;
78781;SDS011;68126;55.748;48.742;2023-12-28T18:34:12;2.33;;;1.80;;
78781;SDS011;68126;55.748;48.742;2023-12-28T18:39:38;2.47;;;2.15;;
78781;SDS011;68126;55.748;48.742;2023-12-28T18:45:04;2.62;;;2.00;;
78781;SDS011;68126;55.748;48.742;2023-12-28T18:50:28;3.02;;;2.45;;
78781;SDS011;68126;55.748;48.742;2023-12-28T18:55:54;2.95;;;2.45;;
78781;SDS011;68126;55.748;48.742;2023-12-28T19:01:19;3.27;;;2.83;;
78781;SDS011;68126;55.748;48.742;2023-12-28T19:06:44;3.33;;;2.85;;
78781;SDS011;68126;55.748;48.742;2023-12-28T19:12:09;3.67;;;2.15;;
78781;SDS011;68126;55.748;48.742;2023-12-28T19:17:34;4.50;;;2.75;;
78781;SDS011;68126;55.748;48.742;2023-12-28T19:23:00;4.72;;;3.12;;
78781;SDS011;68126;55.748;48.742;2023-12-28T19:28:24;3.90;;;3.15;;
78781;SDS011;68126;55.748;48.742;2023-12-28T19:33:49;3.72;;;2.27;;
78781;SDS011;68126;55.748;48.742;2023-12-28T19:39:14;4.12;;;2.75;;
78781;SDS011;68126;55.748;48.742;2023-12-28T19:44:39;3.10;;;2.72;;
78781;SDS011;68126;55.748;48.742;2023-12-28T19:50:04;3.42;;;2.10;;
78781;SDS011;68126;55.748;48.742;2023-12-28T19:55:29;2.85;;;2.45;;
78781;SDS011;68126;55.748;48.742;2023-12-28T20:00:54;4.05;;;2.83;;
78781;SDS011;68126;55.748;48.742;2023-12-28T20:06:19;4.83;;;3.00;;
78781;SDS011;68126;55.748;48.742;2023-12-28T20:11:44;5.75;;;3.35;;
78781;SDS011;68126;55.748;48.742;2023-12-28T20:17:10;5.50;;;2.45;;
78781;SDS011;68126;55.748;48.742;2023-12-28T20:22:34;3.40;;;3.10;;
78781;SDS011;68126;55.748;48.742;2023-12-28T20:33:23;7.62;;;3.50;;
78781;SDS011;68126;55.748;48.742;2023-12-28T20:38:48;4.60;;;3.47;;
78781;SDS011;68126;55.748;48.742;2023-12-28T20:49:37;7.15;;;4.00;;
78781;SDS011;68126;55.748;48.742;2023-12-28T20:55:02;3.40;;;3.02;;
78781;SDS011;68126;55.748;48.742;2023-12-28T21:00:27;6.40;;;3.62;;
78781;SDS011;68126;55.748;48.742;2023-12-28T21:05:52;4.72;;;3.90;;
78781;SDS011;68126;55.748;48.742;2023-12-28T21:11:16;4.75;;;1.70;;
78781;SDS011;68126;55.748;48.742;2023-12-28T21:16:41;5.08;;;2.77;;
78781;SDS011;68126;55.748;48.742;2023-12-28T21:22:06;3.45;;;2.83;;
78781;SDS011;68126;55.748;48.742;2023-12-28T21:27:31;4.95;;;3.65;;
78781;SDS011;68126;55.748;48.742;2023-12-28T21:32:56;4.42;;;2.58;;
78781;SDS011;68126;55.748;48.742;2023-12-28T21:38:20;3.35;;;2.75;;
78781;SDS011;68126;55.748;48.742;2023-12-28T21:43:45;4.67;;;2.55;;
78781;SDS011;68126;55.748;48.742;2023-12-28T21:49:10;4.50;;;3.75;;
78781;SDS011;68126;55.748;48.742;2023-12-28T21:54:35;3.72;;;2.25;;
78781;SDS011;68126;55.748;48.742;2023-12-28T22:05:23;4.67;;;3.47;;
78781;SDS011;68126;55.748;48.742;2023-12-28T22:10:48;2.80;;;2.35;;
78781;SDS011;68126;55.748;48.742;2023-12-28T22:16:13;2.37;;;1.67;;
78781;SDS011;68126;55.748;48.742;2023-12-28T22:21:37;4.55;;;2.90;;
78781;SDS011;68126;55.748;48.742;2023-12-28T22:27:02;4.90;;;2.30;;
78781;SDS011;68126;55.748;48.742;2023-12-28T22:32:27;5.42;;;4.62;;
78781;SDS011;68126;55.748;48.742;2023-12-28T22:37:52;2.50;;;1.67;;
78781;SDS011;68126;55.748;48.742;2023-12-28T22:43:17;6.47;;;3.35;;
78781;SDS011;68126;55.748;48.742;2023-12-28T22:48:43;3.17;;;2.25;;
78781;SDS011;68126;55.748;48.742;2023-12-28T22:54:08;4.12;;;2.77;;
78781;SDS011;68126;55.748;48.742;2023-12-28T22:59:32;3.98;;;2.80;;
78781;SDS011;68126;55.748;48.742;2023-12-28T23:04:57;6.90;;;4.00;;
78781;SDS011;68126;55.748;48.742;2023-12-28T23:10:22;3.52;;;2.42;;
78781;SDS011;68126;55.748;48.742;2023-12-28T23:15:49;5.70;;;3.47;;
78781;SDS011;68126;55.748;48.742;2023-12-28T23:21:13;4.25;;;2.92;;
78781;SDS011;68126;55.748;48.742;2023-12-28T23:26:38;6.50;;;2.35;;
78781;SDS011;68126;55.748;48.742;2023-12-28T23:32:03;4.83;;;2.25;;
78781;SDS011;68126;55.748;48.742;2023-12-28T23:42:52;4.85;;;3.30;;
78781;SDS011;68126;55.748;48.742;2023-12-28T23:48:16;7.78;;;3.72;;
78781;SDS011;68126;55.748;48.742;2023-12-28T23:53:41;5.00;;;2.42;;
78781;SDS011;68126;55.748;48.742;2023-12-28T23:59:06;5.67;;;2.65;;
